createdAt,value
2023-04-01T00:00:10.762Z,25.10
2023-04-01T00:03:01.992Z,23.58
2023-04-01T00:05:29.674Z,25.90
2023-04-01T00:07:56.765Z,24.00
2023-04-01T00:10:24.156Z,26.40
2023-04-01T00:12:51.394Z,20.42
2023-04-01T00:15:18.818Z,21.10
2023-04-01T00:17:46.063Z,18.98
2023-04-01T00:20:15.314Z,14.63
2023-04-01T00:22:42.494Z,20.10
2023-04-01T00:25:10.379Z,20.35
2023-04-01T00:27:37.491Z,17.88
2023-04-01T00:30:05.608Z,22.20
2023-04-01T00:32:33.074Z,19.02
2023-04-01T00:35:00.850Z,18.00
2023-04-01T00:37:29.262Z,21.55
2023-04-01T00:39:57.754Z,27.42
2023-04-01T00:42:25.202Z,18.50
2023-04-01T00:44:54.679Z,23.90
2023-04-01T00:47:23.486Z,23.08
2023-04-01T00:49:54.798Z,25.50
2023-04-01T00:52:26.790Z,20.83
2023-04-01T00:55:05.397Z,23.65
2023-04-01T01:00:08.297Z,29.08
2023-04-01T01:02:36.587Z,24.35
2023-04-01T01:05:04.530Z,26.45
2023-04-01T01:07:54.083Z,25.50
2023-04-01T01:15:41.067Z,24.02
2023-04-01T01:21:40.966Z,19.02
2023-04-01T01:24:23.344Z,23.63
2023-04-01T01:27:11.589Z,25.17
2023-04-01T01:30:12.448Z,23.98
2023-04-01T01:32:56.334Z,18.13
2023-04-01T01:35:27.809Z,16.77
2023-04-01T01:38:00.918Z,19.38
2023-04-01T01:40:31.439Z,31.55
2023-04-01T01:43:03.729Z,23.50
2023-04-01T01:45:33.335Z,15.38
2023-04-01T01:48:04.165Z,26.20
2023-04-01T01:53:07.615Z,19.38
2023-04-01T01:55:38.355Z,23.45
2023-04-01T01:58:10.263Z,21.35
2023-04-01T02:00:48.087Z,17.80
2023-04-01T02:03:18.197Z,17.98
2023-04-01T02:05:45.564Z,24.27
2023-04-01T02:08:19.369Z,19.77
2023-04-01T02:10:57.865Z,25.27
2023-04-01T02:13:41.798Z,23.73
2023-04-01T02:16:17.076Z,16.35
2023-04-01T02:18:46.709Z,21.70
2023-04-01T02:21:16.882Z,19.33
2023-04-01T02:23:46.266Z,23.67
2023-04-01T02:26:15.326Z,31.60
2023-04-01T02:28:44.732Z,24.08
2023-04-01T02:31:12.810Z,23.33
2023-04-01T02:33:42.839Z,24.98
2023-04-01T02:38:46.370Z,23.67
2023-04-01T02:41:13.859Z,24.48
2023-04-01T02:43:43.565Z,27.02
2023-04-01T02:46:14.599Z,26.13
2023-04-01T02:48:42.086Z,27.77
2023-04-01T02:51:09.855Z,26.98
2023-04-01T02:53:37.088Z,22.75
2023-04-01T02:56:04.297Z,34.65
2023-04-01T02:58:31.620Z,29.95
2023-04-01T03:00:58.698Z,29.20
2023-04-01T03:03:26.175Z,27.25
2023-04-01T03:05:56.401Z,29.55
2023-04-01T03:08:23.691Z,35.92
2023-04-01T03:10:50.706Z,30.83
2023-04-01T03:13:18.167Z,31.65
2023-04-01T03:15:45.318Z,30.17
2023-04-01T03:18:12.807Z,34.25
2023-04-01T03:20:40.278Z,33.95
2023-04-01T03:23:09.146Z,15.00
2023-04-01T03:25:36.176Z,16.00
2023-04-01T03:28:04.281Z,13.88
2023-04-01T03:30:32.310Z,12.57
2023-04-01T03:33:01.132Z,11.45
2023-04-01T03:35:28.654Z,10.43
2023-04-01T03:37:56.047Z,7.93
2023-04-01T03:40:23.305Z,9.05
2023-04-01T03:42:51.009Z,8.23
2023-04-01T03:45:18.188Z,10.70
2023-04-01T03:47:45.577Z,10.20
2023-04-01T03:50:12.818Z,9.75
2023-04-01T03:52:40.602Z,10.68
2023-04-01T03:55:08.002Z,11.07
2023-04-01T03:57:35.960Z,11.38
2023-04-01T04:00:14.692Z,11.02
2023-04-01T04:02:43.738Z,10.43
2023-04-01T04:05:14.255Z,11.95
2023-04-01T04:07:41.748Z,13.80
2023-04-01T04:10:09.759Z,11.30
2023-04-01T04:12:37.177Z,11.02
2023-04-01T04:15:04.644Z,10.95
2023-04-01T04:17:31.962Z,13.00
2023-04-01T04:19:59.154Z,11.07
2023-04-01T04:22:26.685Z,11.35
2023-04-01T04:24:53.979Z,10.43
2023-04-01T04:27:21.391Z,11.48
2023-04-01T04:29:57.568Z,9.85
2023-04-01T04:32:26.066Z,10.18
2023-04-01T04:34:53.640Z,10.70
2023-04-01T04:37:21.059Z,16.15
2023-04-01T04:39:48.095Z,16.65
2023-04-01T04:42:15.839Z,12.50
2023-04-01T04:44:43.056Z,13.30
2023-04-01T04:47:10.659Z,13.88
2023-04-01T04:49:37.819Z,17.48
2023-04-01T04:52:10.695Z,15.43
2023-04-01T04:54:37.810Z,14.80
2023-04-01T04:57:06.491Z,14.02
2023-04-01T04:59:39.997Z,22.00
2023-04-01T05:02:12.441Z,18.65
2023-04-01T05:04:39.552Z,20.55
2023-04-01T05:07:10.389Z,18.08
2023-04-01T05:09:37.335Z,14.93
2023-04-01T05:12:05.537Z,20.05
2023-04-01T05:14:52.655Z,18.58
2023-04-01T05:17:20.135Z,17.83
2023-04-01T05:19:47.212Z,16.20
2023-04-01T05:22:14.618Z,16.20
2023-04-01T05:24:42.207Z,17.15
2023-04-01T05:27:09.683Z,24.65
2023-04-01T05:29:39.940Z,22.48
2023-04-01T05:32:10.404Z,14.85
2023-04-01T05:34:37.643Z,19.55
2023-04-01T05:37:04.943Z,16.95
2023-04-01T05:39:32.091Z,18.58
2023-04-01T05:41:59.559Z,19.63
2023-04-01T05:44:26.595Z,20.73
2023-04-01T05:47:08.637Z,18.88
2023-04-01T05:49:36.305Z,17.80
2023-04-01T05:52:05.021Z,18.55
2023-04-01T05:54:35.396Z,16.95
2023-04-01T05:57:03.548Z,27.95
2023-04-01T05:59:32.281Z,21.25
2023-04-01T06:02:00.242Z,23.80
2023-04-01T06:04:33.872Z,14.65
2023-04-01T06:07:01.553Z,16.13
2023-04-01T06:09:31.368Z,30.40
2023-04-01T06:12:02.168Z,13.95
2023-04-01T06:15:07.658Z,17.95
2023-04-01T06:17:53.580Z,14.90
2023-04-01T06:20:25.893Z,19.65
2023-04-01T06:23:14.896Z,14.80
2023-04-01T06:25:56.322Z,25.77
2023-04-01T06:29:02.752Z,24.13
2023-04-01T06:31:57.462Z,32.83
2023-04-01T06:34:28.209Z,19.67
2023-04-01T06:40:05.595Z,14.75
2023-04-01T06:42:37.244Z,16.58
2023-04-01T06:45:19.823Z,16.58
2023-04-01T06:48:53.106Z,14.85
2023-04-01T06:51:56.557Z,14.15
2023-04-01T06:54:48.554Z,16.73
2023-04-01T06:57:52.464Z,17.23
2023-04-01T07:00:36.058Z,10.32
2023-04-01T07:03:10.493Z,8.88
2023-04-01T07:05:38.719Z,13.77
2023-04-01T07:08:12.653Z,13.07
2023-04-01T07:10:56.163Z,7.50
2023-04-01T07:14:16.455Z,9.60
2023-04-01T07:16:59.457Z,9.38
2023-04-01T07:19:43.881Z,5.90
2023-04-01T07:22:16.973Z,4.47
2023-04-01T07:25:20.450Z,4.05
2023-04-01T07:28:04.364Z,3.13
2023-04-01T07:31:03.756Z,3.28
2023-04-01T07:33:51.692Z,5.30
2023-04-01T07:36:42.628Z,4.22
2023-04-01T07:39:36.650Z,2.60
2023-04-01T07:42:41.754Z,3.95
2023-04-01T07:45:37.184Z,2.90
2023-04-01T07:48:22.118Z,2.22
2023-04-01T07:51:25.337Z,3.03
2023-04-01T07:54:05.040Z,2.78
2023-04-01T07:57:07.256Z,2.25
2023-04-01T07:59:55.340Z,7.57
2023-04-01T08:02:50.451Z,2.10
2023-04-01T08:05:30.507Z,2.05
2023-04-01T08:08:34.106Z,3.67
2023-04-01T08:11:47.728Z,2.13
2023-04-01T08:14:48.231Z,3.65
2023-04-01T08:17:45.857Z,3.03
2023-04-01T08:20:33.389Z,2.17
2023-04-01T08:23:09.346Z,1.75
2023-04-01T08:26:01.438Z,1.73
2023-04-01T08:28:42.207Z,2.03
2023-04-01T08:31:38.823Z,2.80
2023-04-01T08:34:16.187Z,2.15
2023-04-01T08:36:55.363Z,2.40
2023-04-01T08:39:35.296Z,1.35
2023-04-01T08:42:25.677Z,5.65
2023-04-01T08:45:28.032Z,4.03
2023-04-01T08:48:38.302Z,3.63
2023-04-01T08:51:30.016Z,2.13
2023-04-01T08:54:39.590Z,3.03
2023-04-01T08:57:39.375Z,2.58
2023-04-01T09:00:33.556Z,2.30
2023-04-01T09:03:32.836Z,3.03
2023-04-01T09:06:32.116Z,3.17
2023-04-01T09:12:17.965Z,5.43
2023-04-01T09:15:09.085Z,4.00
2023-04-01T09:18:10.795Z,4.22
2023-04-01T09:21:18.933Z,3.55
2023-04-01T09:24:25.510Z,3.55
2023-04-01T09:27:13.792Z,4.78
2023-04-01T09:30:19.921Z,4.03
2023-04-01T09:33:12.834Z,2.10
2023-04-01T09:35:50.573Z,5.82
2023-04-01T09:38:50.572Z,2.85
2023-04-01T09:41:31.915Z,2.78
2023-04-01T09:44:31.960Z,2.55
2023-04-01T09:47:17.408Z,2.67
2023-04-01T09:49:51.920Z,2.20
2023-04-01T09:52:37.911Z,3.65
2023-04-01T09:55:32.045Z,3.22
2023-04-01T09:58:18.138Z,2.55
2023-04-01T10:01:17.484Z,1.92
2023-04-01T10:04:03.871Z,2.83
2023-04-01T10:07:09.581Z,1.50
2023-04-01T10:10:11.218Z,2.63
2023-04-01T10:13:22.042Z,3.00
2023-04-01T10:16:08.871Z,2.50
2023-04-01T10:18:55.634Z,1.75
2023-04-01T10:21:53.443Z,1.70
2023-04-01T10:24:32.616Z,2.67
2023-04-01T10:27:41.619Z,2.40
2023-04-01T10:30:31.775Z,2.25
2023-04-01T10:33:30.045Z,3.35
2023-04-01T10:36:22.636Z,3.88
2023-04-01T10:39:08.276Z,3.60
2023-04-01T10:41:48.618Z,2.65
2023-04-01T10:45:16.313Z,2.40
2023-04-01T10:48:05.124Z,2.10
2023-04-01T10:51:00.372Z,1.65
2023-04-01T10:53:46.092Z,3.03
2023-04-01T10:56:39.910Z,1.20
2023-04-01T11:00:07.864Z,2.65
2023-04-01T11:03:26.566Z,2.90
2023-04-01T11:06:50.330Z,3.22
2023-04-01T11:10:00.045Z,1.85
2023-04-01T11:12:52.532Z,2.30
2023-04-01T11:15:35.982Z,1.35
2023-04-01T11:18:30.288Z,0.73
2023-04-01T11:21:06.858Z,2.90
2023-04-01T11:23:37.629Z,1.42
2023-04-01T11:26:05.072Z,1.73
2023-04-01T11:29:15.979Z,2.58
2023-04-01T11:31:56.275Z,3.80
2023-04-01T11:34:29.465Z,2.05
2023-04-01T11:37:22.082Z,4.10
2023-04-01T11:40:32.207Z,3.22
2023-04-01T11:43:41.269Z,1.38
2023-04-01T11:46:53.023Z,4.20
2023-04-01T11:49:48.843Z,3.80
2023-04-01T11:52:31.787Z,2.35
2023-04-01T11:55:08.089Z,3.67
2023-04-01T11:57:52.880Z,4.88
2023-04-01T12:00:27.148Z,1.40
2023-04-01T12:03:17.617Z,3.35
2023-04-01T12:06:30.783Z,2.72
2023-04-01T12:09:16.682Z,2.90
2023-04-01T12:12:07.934Z,3.30
2023-04-01T12:15:03.668Z,2.67
2023-04-01T12:17:50.131Z,2.25
2023-04-01T12:20:45.790Z,3.60
2023-04-01T12:23:42.577Z,1.17
2023-04-01T12:26:47.555Z,2.35
2023-04-01T12:29:15.846Z,2.10
2023-04-01T12:32:17.748Z,2.40
2023-04-01T12:35:14.797Z,1.65
2023-04-01T12:38:00.249Z,1.15
2023-04-01T12:40:58.864Z,3.63
2023-04-01T12:43:52.434Z,1.63
2023-04-01T12:46:27.086Z,4.10
2023-04-01T12:49:16.136Z,2.22
2023-04-01T12:51:51.987Z,1.77
2023-04-01T12:54:41.600Z,1.73
2023-04-01T12:57:09.787Z,3.83
2023-04-01T12:59:56.310Z,1.05
2023-04-01T13:02:38.627Z,1.30
2023-04-01T13:05:24.892Z,3.70
2023-04-01T13:08:08.239Z,1.83
2023-04-01T13:11:20.667Z,2.25
2023-04-01T13:14:30.826Z,2.38
2023-04-01T13:17:40.776Z,2.45
2023-04-01T13:20:11.767Z,0.82
2023-04-01T13:23:09.975Z,1.55
2023-04-01T13:25:51.031Z,1.88
2023-04-01T13:28:45.898Z,2.92
2023-04-01T13:31:44.208Z,2.80
2023-04-01T13:34:21.212Z,1.30
2023-04-01T13:36:55.558Z,1.30
2023-04-01T13:39:29.329Z,1.58
2023-04-01T13:42:05.834Z,1.60
2023-04-01T13:44:44.817Z,2.53
2023-04-01T13:47:30.834Z,0.80
2023-04-01T13:50:16.640Z,1.30
2023-04-01T13:53:03.451Z,1.13
2023-04-01T13:55:50.113Z,1.60
2023-04-01T13:58:48.694Z,2.75
2023-04-01T14:01:35.524Z,3.10
2023-04-01T14:04:24.694Z,1.55
2023-04-01T14:07:05.458Z,3.83
2023-04-01T14:10:10.496Z,2.63
2023-04-01T14:12:58.594Z,2.33
2023-04-01T14:15:35.296Z,1.10
2023-04-01T14:18:28.631Z,1.00
2023-04-01T14:21:15.977Z,2.15
2023-04-01T14:24:16.400Z,3.10
2023-04-01T14:27:10.365Z,4.05
2023-04-01T14:29:43.924Z,3.75
2023-04-01T14:32:36.081Z,4.80
2023-04-01T14:35:33.770Z,6.03
2023-04-01T14:38:43.503Z,2.25
2023-04-01T14:41:22.494Z,5.88
2023-04-01T14:44:21.118Z,4.40
2023-04-01T14:47:07.595Z,3.38
2023-04-01T14:49:44.336Z,2.70
2023-04-01T14:52:32.142Z,5.68
2023-04-01T14:55:00.882Z,3.58
2023-04-01T14:57:31.041Z,7.63
2023-04-01T15:02:44.000Z,4.65
2023-04-01T15:05:33.413Z,3.97
2023-04-01T15:08:24.943Z,5.80
2023-04-01T15:10:52.603Z,5.63
2023-04-01T15:13:43.072Z,6.72
2023-04-01T15:16:51.428Z,8.50
2023-04-01T15:19:48.309Z,7.72
2023-04-01T15:22:43.129Z,6.00
2023-04-01T15:25:53.576Z,5.72
2023-04-01T15:28:21.214Z,6.15
2023-04-01T15:30:58.700Z,7.75
2023-04-01T15:33:44.888Z,8.40
2023-04-01T15:36:40.917Z,12.65
2023-04-01T15:39:08.904Z,5.43
2023-04-01T15:41:55.131Z,7.75
2023-04-01T15:44:40.894Z,7.60
2023-04-01T15:47:27.223Z,4.68
2023-04-01T15:50:29.988Z,7.15
2023-04-01T15:53:06.912Z,6.63
2023-04-01T15:55:45.100Z,7.22
2023-04-01T15:58:29.069Z,7.93
2023-04-01T16:01:15.117Z,7.30
2023-04-01T16:03:52.617Z,11.93
2023-04-01T16:06:54.989Z,10.75
2023-04-01T16:09:37.131Z,6.40
2023-04-01T16:12:25.758Z,5.60
2023-04-01T16:15:23.956Z,11.17
2023-04-01T16:17:57.595Z,8.35
2023-04-01T16:21:04.083Z,14.85
2023-04-01T16:23:41.358Z,10.10
2023-04-01T16:26:37.202Z,10.45
2023-04-01T16:29:20.829Z,14.38
2023-04-01T16:32:13.997Z,11.40
2023-04-01T16:34:59.521Z,20.33
2023-04-01T16:37:36.329Z,13.77
2023-04-01T16:40:20.706Z,10.75
2023-04-01T16:43:08.614Z,10.70
2023-04-01T16:46:09.089Z,10.60
2023-04-01T16:49:03.776Z,17.63
2023-04-01T16:51:56.754Z,11.98
2023-04-01T16:54:51.812Z,11.48
2023-04-01T16:57:45.118Z,11.23
2023-04-01T17:00:27.512Z,11.10
2023-04-01T17:03:18.592Z,9.38
2023-04-01T17:05:46.634Z,10.15
2023-04-01T17:08:56.571Z,13.63
2023-04-01T17:11:50.099Z,12.18
2023-04-01T17:14:25.383Z,12.48
2023-04-01T17:17:12.536Z,9.63
2023-04-01T17:20:39.218Z,10.13
2023-04-01T17:23:26.338Z,12.10
2023-04-01T17:26:08.900Z,14.75
2023-04-01T17:29:09.458Z,6.50
2023-04-01T17:31:52.821Z,9.95
2023-04-01T17:34:44.185Z,11.50
2023-04-01T17:37:47.460Z,9.05
2023-04-01T17:40:36.398Z,12.13
2023-04-01T17:43:04.553Z,12.65
2023-04-01T17:45:49.464Z,10.35
2023-04-01T17:48:29.864Z,9.45
2023-04-01T17:51:17.864Z,8.75
2023-04-01T17:53:58.426Z,10.52
2023-04-01T17:56:44.446Z,14.70
2023-04-01T17:59:20.221Z,11.90
2023-04-01T18:01:58.545Z,12.57
2023-04-01T18:04:38.597Z,12.23
2023-04-01T18:07:44.898Z,9.35
2023-04-01T18:10:22.452Z,15.55
2023-04-01T18:13:26.407Z,11.35
2023-04-01T18:16:12.693Z,13.25
2023-04-01T18:18:59.834Z,9.73
2023-04-01T18:21:35.413Z,11.82
2023-04-01T18:24:41.076Z,14.77
2023-04-01T18:27:19.204Z,12.20
2023-04-01T18:30:13.540Z,12.52
2023-04-01T18:33:10.661Z,11.38
2023-04-01T18:35:41.663Z,10.10
2023-04-01T18:38:18.451Z,14.93
2023-04-01T18:41:11.591Z,12.05
2023-04-01T18:44:19.028Z,18.30
2023-04-01T18:46:54.725Z,9.57
2023-04-01T18:49:55.517Z,10.18
2023-04-01T18:52:42.423Z,13.25
2023-04-01T18:55:21.948Z,12.32
2023-04-01T19:00:39.969Z,10.23
2023-04-01T19:03:18.767Z,10.10
2023-04-01T19:05:51.362Z,16.95
2023-04-01T19:08:37.718Z,15.70
2023-04-01T19:11:31.603Z,12.68
2023-04-01T19:14:28.528Z,12.82
2023-04-01T19:17:16.211Z,97.75
2023-04-01T19:20:22.362Z,19.67
2023-04-01T19:23:03.452Z,15.98
2023-04-01T19:25:56.490Z,8.63
2023-04-01T19:28:39.224Z,14.48
2023-04-01T19:31:34.152Z,9.75
2023-04-01T19:34:38.349Z,11.27
2023-04-01T19:37:20.598Z,10.50
2023-04-01T19:40:09.798Z,6.78
2023-04-01T19:45:54.860Z,9.85
2023-04-01T19:48:29.023Z,15.70
2023-04-01T19:51:24.960Z,18.70
2023-04-01T19:54:11.233Z,19.83
2023-04-01T19:57:11.985Z,13.90
2023-04-01T19:59:52.001Z,24.17
2023-04-01T20:02:35.283Z,14.18
2023-04-01T20:05:35.952Z,11.48
2023-04-01T20:08:25.551Z,18.45
2023-04-01T20:10:59.203Z,11.00
2023-04-01T20:13:41.882Z,10.00
2023-04-01T20:16:11.975Z,11.05
2023-04-01T20:18:42.865Z,10.77
2023-04-01T20:21:32.803Z,11.43
2023-04-01T20:24:16.220Z,17.23
2023-04-01T20:26:51.470Z,14.10
2023-04-01T20:29:37.767Z,16.17
2023-04-01T20:32:18.285Z,12.07
2023-04-01T20:35:04.457Z,10.25
2023-04-01T20:37:56.243Z,15.32
2023-04-01T20:40:44.243Z,8.85
2023-04-01T20:43:32.384Z,8.05
2023-04-01T20:46:28.445Z,8.75
2023-04-01T20:48:56.612Z,8.73
2023-04-01T20:51:32.482Z,8.80
2023-04-01T20:54:18.843Z,14.10
2023-04-01T20:56:46.134Z,10.25
2023-04-01T20:59:38.780Z,9.60
2023-04-01T21:02:31.185Z,8.63
2023-04-01T21:05:23.864Z,13.77
2023-04-01T21:08:04.841Z,9.07
2023-04-01T21:10:42.361Z,11.10
2023-04-01T21:13:25.995Z,13.93
2023-04-01T21:16:06.654Z,11.07
2023-04-01T21:18:40.241Z,9.57
2023-04-01T21:21:10.594Z,12.38
2023-04-01T21:23:55.521Z,7.65
2023-04-01T21:26:48.739Z,12.63
2023-04-01T21:29:31.184Z,13.35
2023-04-01T21:32:10.976Z,8.48
2023-04-01T21:34:52.184Z,13.48
2023-04-01T21:37:42.255Z,10.43
2023-04-01T21:40:12.476Z,13.43
2023-04-01T21:42:55.367Z,9.80
2023-04-01T21:45:44.391Z,8.23
2023-04-01T21:48:46.513Z,9.93
2023-04-01T21:52:08.389Z,12.93
2023-04-01T21:55:10.174Z,9.45
2023-04-01T21:57:55.086Z,8.88
2023-04-01T22:00:43.610Z,12.25
2023-04-01T22:03:28.804Z,11.00
2023-04-01T22:06:16.469Z,11.80
2023-04-01T22:09:01.892Z,21.40
2023-04-01T22:12:02.583Z,27.48
2023-04-01T22:14:48.765Z,13.35
2023-04-01T22:17:32.926Z,13.07
2023-04-01T22:20:34.635Z,11.73
2023-04-01T22:23:11.227Z,5.93
2023-04-01T22:26:08.254Z,6.28
2023-04-01T22:29:03.404Z,9.70
2023-04-01T22:31:47.251Z,8.73
2023-04-01T22:34:23.758Z,7.00
2023-04-01T22:37:22.903Z,9.45
2023-04-01T22:39:50.751Z,8.35
2023-04-01T22:42:41.037Z,6.15
2023-04-01T22:45:14.271Z,6.93
2023-04-01T22:48:20.482Z,7.32
2023-04-01T22:50:53.676Z,6.50
2023-04-01T22:53:53.230Z,6.82
2023-04-01T22:59:01.382Z,5.85
2023-04-01T23:01:34.439Z,7.97
2023-04-01T23:04:06.174Z,7.53
2023-04-01T23:06:42.428Z,8.77
2023-04-01T23:09:16.091Z,8.07
2023-04-01T23:12:01.994Z,6.00
2023-04-01T23:14:29.981Z,10.30
2023-04-01T23:17:25.570Z,10.88
2023-04-01T23:20:12.214Z,9.52
2023-04-01T23:23:21.296Z,4.55
2023-04-01T23:26:01.147Z,5.18
2023-04-01T23:28:51.945Z,8.18
2023-04-01T23:31:27.838Z,6.82
2023-04-01T23:33:57.747Z,7.75
2023-04-01T23:36:25.929Z,8.48
2023-04-01T23:38:53.916Z,8.80
2023-04-01T23:41:31.922Z,10.70
2023-04-01T23:44:11.661Z,8.13
2023-04-01T23:46:41.773Z,5.85
2023-04-01T23:49:21.897Z,6.38
2023-04-01T23:54:43.007Z,6.55
2023-04-01T23:57:18.837Z,4.85
